Buhl, ID (83316)

12:11 AM MDT on August 31, 2015 (GMT -0600)
KIDBUHL3 | | Change Station
CLOSE
Current Station
Personal Weather Station
Location: Buhl, ID
Elevation: 3660 ft
Nearby Weather Stations

Elev 3660 ft 42.62 °N, 114.75 °W | Updated 1 minute ago

Clear
Clear
60.6 °F
Feels Like 60.6 °F
N
0.0
Wind Variable Wind from East
Gusts 2.4 mph

Today
High -- | Low -- °F
--% Chance of Precip.
Yesterday
High -- | Low -- °F
Precip. -- in
7:02 AM 8:15 PM
Full, 97% visible
Pressure 29.88 in
Visibility 10.0 miles
Clouds Clear
Dew Point 37 °F
Humidity 41%
Rainfall 0.00 in
Snow Depth Not available.
UV 0 out of 12
Pollen 6.90 out of 12
Air Quality Not available.
Flu Activity Not available.
METAR KTWF 310553Z AUTO 19009KT 10SM CLR 18/M03 A3004 RMK AO2 SLP119 T01781028 10267 20156 51011
Pressure 29.88 in
Visibility 10.0 miles
Clouds Clear
Dew Point 37 °F
Humidity 41%
Rainfall 0.00 in
Snow Depth Not available.
UV 0 out of 12
Pollen 6.90 out of 12
Air Quality Not available.
Flu Activity Not available.
METAR KTWF 310553Z AUTO 19009KT 10SM CLR 18/M03 A3004 RMK AO2 SLP119 T01781028 10267 20156 51011

10-Day Weather Forecast

×

Almanac

Astronomy

Aug. 31, 2015 Rise Set
Actual Time
Civil Twilight
Nautical Twilight
Astronomical Twilight
Moon
Length of Visible Light
Length of Day
Tomorrow will be .
, % of the Moon is Illuminated

Today's Extremes

State Highs State Lows

Community

WunderPhotos

Upload Photos

1,851,215 photos uploaded!

WunderBlogs® & News

Nearby

Air Quality

  Air Quality AQ Index Pollutant
Not available.

Snow Depth

Station Depth Elevation

Earthquake Activity

City Distance Mag. Time & Date
Minimum magnitude displayed is 2.5.

Coastal Water Temperatures

Place Temperature

Stations

Nearby Weather Stations

Station Location Temp. Windchill Dew Point Humidity Wind Precip. Elev Updated Type